Data for 02/23/2008

Time Sea-Level Adjusted Pressure Absolute Pressure Temperature Relative Humidity Dew Point   
(mb) (inHg) (mb) (inHg) (C) (F) (%) (C) (F)
00:05 1010 29.83 839 24.78 -1.1 30.1 58 -8.2 17.2
00:10 1010 29.83 839 24.78 -1.1 30.1 58 -8.3 17.1
00:15 1010 29.83 839 24.78 -0.6 30.8 57 -8.2 17.2
00:20 1010 29.83 839 24.78 -0.3 31.5 56 -8.1 17.4
00:25 1010 29.83 839 24.78 -0.2 31.6 56 -8.1 17.5
00:30 1010 29.83 839 24.78 -0.6 31 56 -8.2 17.2
00:35 1010 29.83 839 24.78 -1 30.2 58 -8.3 17.1
00:40 1010 29.83 839 24.78 -1.1 30.1 58 -8.3 17.1
00:45 1010 29.83 839 24.78 -1.1 30.1 58 -8.3 17
00:50 1010 29.83 839 24.78 -1.3 29.6 59 -8.4 16.9
00:55 1010 29.83 839 24.78 -1.6 29.1 60 -8.5 16.8
01:00 1010 29.83 839 24.78 -2.2 28.1 62 -8.6 16.6
01:05 1010 29.83 839 24.78 -2.3 27.9 62 -8.5 16.7
01:10 1010 29.83 839 24.78 -1.7 28.9 61 -8.3 17
01:15 1010 29.83 839 24.78 -1.5 29.4 60 -8.3 17.1
01:20 1010 29.83 839 24.78 -1.8 28.8 61 -8.4 16.9
01:25 1010 29.83 839 24.78 -1.7 28.9 61 -8.4 17
01:30 1010 29.83 839 24.78 -1.6 29 60 -8.4 16.9
01:35 1010 29.83 839 24.78 -1.7 28.9 61 -8.4 16.9
01:40 1010 29.83 839 24.78 -1.9 28.6 61 -8.4 16.9
01:45 1010 29.83 839 24.78 -1.7 28.9 61 -8.3 17
01:50 1010 29.83 839 24.78 -1.6 29.1 60 -8.3 17.1
01:55 1010 29.83 839 24.78 -1.5 29.3 60 -8.3 17.1
02:00 1010 29.83 839 24.78 -1.4 29.4 60 -8.3 17
02:05 1010 29.83 839 24.78 -1.5 29.3 59 -8.4 16.8
02:10 1010 29.83 839 24.78 -1.8 28.7 60 -8.6 16.6
02:15 1010 29.83 839 24.78 -2.3 27.9 61 -8.7 16.3
02:20 1010 29.83 839 24.78 -2.6 27.3 63 -8.7 16.3
02:25 1010 29.83 839 24.78 -2.2 28 62 -8.5 16.7
02:30 1010 29.83 839 24.78 -1.8 28.8 61 -8.4 16.9
02:35 1010 29.83 839 24.78 -2.1 28.2 62 -8.5 16.7
02:40 1010 29.83 839 24.78 -2 28.3 61 -8.5 16.6
02:45 1010 29.83 839 24.78 -2.3 27.9 62 -8.6 16.5
02:50 1010 29.83 839 24.78 -2.3 27.8 62 -8.6 16.5
02:55 1010 29.83 839 24.78 -2.3 27.9 62 -8.6 16.6
03:00 1010 29.83 839 24.78 -2.3 27.9 62 -8.6 16.6
03:05 1010 29.83 839 24.78 -2.3 27.9 62 -8.6 16.6
03:10 1010 29.83 839 24.78 -2.3 27.9 62 -8.5 16.7
03:15 1010 29.83 839 24.78 -2.3 27.9 62 -8.6 16.6
03:20 1010 29.83 839 24.78 -2.4 27.7 62 -8.6 16.5
03:25 1010 29.83 839 24.78 -2.5 27.4 63 -8.6 16.4
03:30 1010 29.83 839 24.78 -2.8 26.9 64 -8.7 16.3
03:35 1010 29.83 839 24.78 -2.8 27 64 -8.7 16.3
03:40 1010 29.83 839 24.78 -2.5 27.5 63 -8.6 16.6
03:45 1010 29.83 839 24.78 -2.4 27.6 63 -8.5 16.6
03:50 1010 29.83 839 24.78 -2.4 27.6 63 -8.5 16.6
03:55 1010 29.83 840 24.81 -2.5 27.4 63 -8.6 16.5
04:00 1010 29.83 840 24.81 -2.7 27.2 63 -8.7 16.3
04:05 1010 29.83 840 24.81 -2.8 26.9 64 -8.7 16.3
04:10 1010 29.83 840 24.81 -3.1 26.4 65 -8.8 16.1
04:15 1010 29.83 840 24.81 -3.3 26 65 -9 15.8
04:20 1011 29.85 840 24.81 -3.6 25.6 66 -9.1 15.6
04:25 1011 29.85 840 24.81 -3.6 25.5 66 -9.1 15.7
04:30 1011 29.85 840 24.81 -3.5 25.6 66 -8.9 15.9
04:35 1011 29.85 840 24.81 -3.4 25.9 66 -8.9 16.1
04:40 1011 29.85 840 24.81 -3.3 26.1 66 -8.8 16.2
04:45 1011 29.85 840 24.81 -3.2 26.2 66 -8.7 16.3
04:50 1011 29.85 840 24.81 -3.1 26.3 65 -8.7 16.3
04:55 1011 29.85 840 24.81 -3.1 26.4 65 -8.7 16.3
05:00 1011 29.85 840 24.81 -3.2 26.2 65 -8.8 16.2
05:05 1011 29.85 840 24.81 -3.1 26.5 65 -8.7 16.3
05:10 1011 29.85 840 24.81 -2.8 27 64 -8.6 16.4
05:15 1011 29.85 840 24.81 -2.6 27.2 64 -8.6 16.6
05:20 1011 29.85 840 24.81 -2.7 27.1 64 -8.6 16.5
05:25 1011 29.85 840 24.81 -2.9 26.9 64 -8.7 16.3
05:30 1011 29.85 840 24.81 -3 26.6 65 -8.7 16.3
05:35 1011 29.85 840 24.81 -3 26.5 65 -8.7 16.3
05:40 1011 29.85 841 24.83 -3.1 26.5 65 -8.7 16.3
05:45 1011 29.85 841 24.83 -3 26.5 65 -8.7 16.3
05:50 1011 29.85 841 24.83 -3.1 26.5 65 -8.7 16.3
05:55 1012 29.88 841 24.83 -2.9 26.7 65 -8.6 16.5
06:00 1012 29.88 841 24.83 -2.6 27.3 64 -8.5 16.7
06:05 1011 29.85 841 24.83 -2.6 27.4 64 -8.5 16.7
06:10 1012 29.88 841 24.83 -2.7 27.2 64 -8.5 16.7
06:15 1012 29.88 841 24.83 -2.7 27.2 64 -8.5 16.6
06:20 1012 29.88 841 24.83 -2.6 27.3 64 -8.5 16.7
06:25 1012 29.88 841 24.83 -2.4 27.6 63 -8.5 16.7
06:30 1012 29.88 841 24.83 -2.4 27.8 63 -8.4 16.8
06:35 1012 29.88 841 24.83 -2.4 27.6 63 -8.5 16.7
06:40 1012 29.88 841 24.83 -2.3 27.8 63 -8.5 16.7
06:45 1012 29.88 841 24.83 -2.3 27.8 63 -8.5 16.7
06:50 1012 29.88 841 24.83 -2.6 27.3 64 -8.6 16.5
06:55 1012 29.88 841 24.83 -2.8 26.9 64 -8.6 16.4
07:00 1012 29.88 841 24.83 -3 26.6 65 -8.7 16.4
07:05 1012 29.88 841 24.83 -3.1 26.3 66 -8.7 16.3
07:10 1012 29.88 841 24.83 -3.4 25.9 66 -8.8 16.2
07:15 1012 29.88 841 24.83 -3.4 25.8 67 -8.7 16.3
07:20 1012 29.88 841 24.83 -3.2 26.2 67 -8.6 16.6
07:25 1012 29.88 842 24.86 -3 26.7 66 -8.4 16.8
07:30 1012 29.88 842 24.86 -3 26.7 66 -8.5 16.7
07:35 1012 29.88 842 24.86 -2.8 27 65 -8.5 16.7
07:40 1012 29.88 842 24.86 -2.7 27.2 65 -8.5 16.8
07:45 1012 29.88 842 24.86 -2.7 27.2 64 -8.5 16.8
07:50 1013 29.91 842 24.86 -2.8 26.9 65 -8.5 16.6
07:55 1013 29.91 842 24.86 -3.1 26.5 66 -8.6 16.5
08:00 1013 29.91 842 24.86 -3.1 26.5 66 -8.6 16.5
08:05 1013 29.91 842 24.86 -3.2 26.3 66 -8.6 16.5
08:10 1013 29.91 842 24.86 -3 26.6 66 -8.5 16.8
08:15 1013 29.91 842 24.86 -2.5 27.5 65 -8.2 17.3
08:20 1013 29.91 842 24.86 -1.9 28.5 64 -7.9 17.8
08:25 1013 29.91 842 24.86 -1.4 29.5 62 -7.7 18.1
08:30 1013 29.91 842 24.86 -1.1 30 61 -7.8 18
08:35 1013 29.91 842 24.86 -1 30.2 60 -7.7 18.1
08:40 1013 29.91 842 24.86 -0.4 31.2 59 -7.6 18.4
08:45 1013 29.91 842 24.86 -0 32 57 -7.5 18.5
08:50 1013 29.91 842 24.86 0 32.1 57 -7.6 18.4
08:55 1013 29.91 842 24.86 0.3 32.5 55 -7.7 18.2
09:00 1013 29.91 842 24.86 0.5 32.9 55 -7.5 18.5
09:05 1013 29.91 843 24.89 0.8 33.5 54 -7.5 18.5
09:10 1013 29.91 843 24.89 0.8 33.4 53 -7.7 18.2
09:15 1013 29.91 843 24.89 0.7 33.3 54 -7.5 18.4
09:20 1013 29.91 843 24.89 1.1 33.9 53 -7.5 18.5
09:25 1014 29.94 843 24.89 1 33.8 53 -7.5 18.6
09:30 1014 29.94 843 24.89 0.2 32.3 55 -7.9 17.8
09:35 1014 29.94 843 24.89 -0.2 31.6 56 -8 17.7
09:40 1014 29.94 843 24.89 -0.2 31.7 57 -7.7 18.2
09:45 1014 29.94 843 24.89 0.4 32.7 56 -7.5 18.5
09:50 1014 29.94 843 24.89 0.4 32.8 56 -7.3 18.8
09:55 1014 29.94 843 24.89 0.6 33.2 56 -7.2 19
10:00 1014 29.94 843 24.89 1.1 34 55 -7 19.4
10:05 1014 29.94 843 24.89 1.2 34.2 55 -6.9 19.5
10:10 1014 29.94 843 24.89 1.2 34.1 55 -7 19.4
10:15 1014 29.94 843 24.89 1 33.7 56 -6.8 19.8
10:20 1014 29.94 843 24.89 1.7 35.1 54 -6.7 20
10:25 1014 29.94 843 24.89 2.1 35.7 53 -6.5 20.3
10:30 1014 29.94 843 24.89 2.5 36.5 52 -6.4 20.5
10:35 1014 29.94 843 24.89 2.6 36.6 52 -6.4 20.4
10:40 1014 29.94 843 24.89 2.4 36.3 53 -6.3 20.7
10:45 1014 29.94 843 24.89 2.3 36.2 53 -6.4 20.5
10:50 1014 29.94 843 24.89 2.8 37.1 52 -6.2 20.9
10:55 1014 29.94 843 24.89 3.2 37.7 50 -6.2 20.9
11:00 1014 29.94 843 24.89 3.1 37.6 50 -6.3 20.7
11:05 1014 29.94 843 24.89 2.8 37 51 -6.3 20.7
11:10 1014 29.94 843 24.89 2.4 36.3 53 -6.3 20.7
11:15 1014 29.94 843 24.89 2.9 37.3 52 -6.1 21.1
11:20 1014 29.94 844 24.92 2.6 36.7 53 -6 21.2
11:25 1014 29.94 844 24.92 3.3 37.9 51 -5.8 21.6
11:30 1014 29.94 844 24.92 3.6 38.4 50 -5.8 21.6
11:35 1014 29.94 844 24.92 3.3 38 51 -5.8 21.6
11:40 1014 29.94 844 24.92 3.8 38.8 49 -6 21.3
11:45 1014 29.94 844 24.92 3.2 37.7 51 -5.9 21.4
11:50 1014 29.94 844 24.92 2.8 37.1 53 -5.9 21.3
11:55 1015 29.97 844 24.92 3.4 38.1 51 -5.8 21.6
12:00 1014 29.94 844 24.92 3.9 39 52 -5.1 22.9
12:05 1014 29.94 844 24.92 4.6 40.2 49 -5.2 22.6
12:10 1014 29.94 844 24.92 4.4 39.9 49 -5.3 22.5
12:15 1014 29.94 844 24.92 4.4 39.9 50 -5.1 22.9
12:20 1014 29.94 844 24.92 3.6 38.6 54 -4.9 23.2
12:25 1014 29.94 844 24.92 2.9 37.3 57 -4.7 23.6
12:30 1014 29.94 844 24.92 3.8 38.9 55 -4.4 24.1
12:35 1015 29.97 844 24.92 3.5 38.3 57 -4.3 24.3
12:40 1015 29.97 844 24.92 3.4 38.1 58 -4.1 24.7
12:45 1014 29.94 844 24.92 3.3 37.9 60 -3.6 25.5
12:50 1014 29.94 844 24.92 3 37.4 63 -3.4 25.8
12:55 1014 29.94 844 24.92 3.5 38.2 62 -3.1 26.4
13:00 1014 29.94 844 24.92 4.2 39.6 60 -2.9 26.7
13:05 1014 29.94 844 24.92 5.2 41.4 56 -2.9 26.9
13:10 1014 29.94 844 24.92 5.1 41.2 55 -3.1 26.5
13:15 1014 29.94 844 24.92 5.4 41.7 55 -2.9 26.7
13:20 1014 29.94 844 24.92 5.3 41.5 55 -3 26.5
13:25 1014 29.94 844 24.92 5 41 57 -2.8 27
13:30 1014 29.94 844 24.92 5.6 42.1 55 -2.6 27.3
13:35 1014 29.94 844 24.92 6.2 43.1 54 -2.5 27.5
13:40 1014 29.94 844 24.92 6.1 43 53 -2.7 27.1
13:45 1014 29.94 844 24.92 6.3 43.4 51 -3 26.6
13:50 1014 29.94 844 24.92 6.1 43 51 -3.1 26.4
13:55 1014 29.94 844 24.92 6.4 43.5 51 -3 26.6
14:00 1014 29.94 844 24.92 6.5 43.8 52 -2.5 27.4
14:05 1014 29.94 844 24.92 5.6 42.2 55 -2.7 27.1
14:10 1014 29.94 844 24.92 5.4 41.6 56 -2.7 27.1
14:15 1014 29.94 844 24.92 6 42.8 53 -2.8 26.9
14:20 1014 29.94 844 24.92 6.5 43.7 52 -2.6 27.2
14:25 1014 29.94 843 24.89 7 44.6 50 -2.7 27.2
14:30 1014 29.94 843 24.89 7.3 45.1 48 -2.9 26.8
14:35 1014 29.94 843 24.89 6.5 43.6 52 -2.6 27.4
14:40 1014 29.94 843 24.89 6.6 44 52 -2.5 27.5
14:45 1014 29.94 844 24.92 7 44.6 51 -2.6 27.4
14:50 1014 29.94 844 24.92 7 44.5 51 -2.5 27.4
14:55 1014 29.94 844 24.92 6.7 44 52 -2.5 27.4
15:00 1014 29.94 844 24.92 5.6 42.1 55 -2.8 27
15:05 1014 29.94 844 24.92 5.7 42.2 56 -2.5 27.5
15:10 1014 29.94 844 24.92 5.9 42.7 54 -2.6 27.3
15:15 1014 29.94 844 24.92 6.4 43.6 53 -2.6 27.4
15:20 1014 29.94 844 24.92 6.3 43.3 52 -2.7 27.1
15:25 1014 29.94 844 24.92 7.1 44.7 50 -2.6 27.3
15:30 1014 29.94 844 24.92 7.3 45.1 49 -2.7 27.2
15:35 1015 29.97 844 24.92 7.2 45 49 -2.9 26.8
15:40 1015 29.97 844 24.92 6.5 43.7 50 -3.1 26.5
15:45 1015 29.97 844 24.92 5.5 41.9 55 -2.9 26.8
15:50 1015 29.97 844 24.92 5.8 42.5 55 -2.5 27.4
15:55 1015 29.97 844 24.92 6.8 44.2 53 -2.2 28.1
16:00 1015 29.97 844 24.92 7.1 44.8 50 -2.6 27.4
16:05 1015 29.97 844 24.92 7.1 44.8 51 -2.4 27.6
16:10 1015 29.97 844 24.92 7.3 45.1 49 -2.8 26.9
16:15 1015 29.97 844 24.92 6.8 44.2 50 -2.9 26.8
16:20 1015 29.97 844 24.92 6.9 44.5 49 -3.2 26.3
16:25 1015 29.97 844 24.92 6.8 44.3 50 -2.9 26.8
16:30 1015 29.97 844 24.92 6.5 43.7 51 -2.9 26.8
16:35 1015 29.97 844 24.92 6.3 43.4 51 -2.9 26.7
16:40 1015 29.97 844 24.92 6.9 44.3 50 -3 26.7
16:45 1015 29.97 844 24.92 7.1 44.8 49 -3 26.6
16:50 1015 29.97 844 24.92 6.2 43.2 51 -3.2 26.2
16:55 1015 29.97 844 24.92 5.2 41.4 54 -3.3 26.1
17:00 1015 29.97 844 24.92 4.3 39.7 57 -3.5 25.7
17:05 1015 29.97 844 24.92 4.2 39.5 58 -3.4 25.8
17:10 1015 29.97 844 24.92 4.6 40.3 56 -3.4 25.9
17:15 1015 29.97 844 24.92 4.5 40 57 -3.3 26
17:20 1015 29.97 844 24.92 3.9 39 58 -3.5 25.6
17:25 1015 29.97 844 24.92 3.6 38.5 59 -3.6 25.5
17:30 1015 29.97 844 24.92 3.4 38.2 59 -3.7 25.3
17:35 1015 29.97 844 24.92 3.3 37.9 61 -3.6 25.5
17:40 1015 29.97 844 24.92 3.2 37.8 61 -3.6 25.5
17:45 1015 29.97 844 24.92 3.1 37.6 61 -3.7 25.4
17:50 1015 29.97 844 24.92 3.1 37.5 61 -3.7 25.4
17:55 1015 29.97 844 24.92 2.9 37.3 61 -3.8 25.2
18:00 1015 29.97 844 24.92 2.9 37.2 62 -3.8 25.2
18:05 1015 29.97 844 24.92 2.9 37.3 61 -3.8 25.2
18:10 1015 29.97 844 24.92 3 37.3 61 -3.8 25.1
18:15 1015 29.97 844 24.92 3 37.3 61 -3.8 25.1
18:20 1015 29.97 844 24.92 3 37.4 61 -3.8 25.2
18:25 1015 29.97 844 24.92 3 37.5 61 -3.8 25.2
18:30 1015 29.97 845 24.95 3 37.4 61 -3.8 25.2
18:35 1015 29.97 845 24.95 3 37.4 62 -3.7 25.4
18:40 1015 29.97 845 24.95 2.8 37.1 64 -3.4 25.9
18:45 1015 29.97 845 24.95 2.6 36.7 65 -3.4 25.9
18:50 1015 29.97 845 24.95 2.6 36.6 66 -3.3 26.1
18:55 1015 29.97 845 24.95 2.5 36.5 66 -3.2 26.2
19:00 1015 29.97 845 24.95 2.5 36.4 67 -3.1 26.5
19:05 1016 30 845 24.95 2.7 36.8 66 -3 26.6
19:10 1016 30 845 24.95 2.9 37.3 65 -2.9 26.8
19:15 1015 29.97 845 24.95 2.6 36.8 67 -2.8 26.9
19:20 1016 30 845 24.95 2.2 36 68 -3 26.7
19:25 1016 30 845 24.95 2 35.6 69 -3.1 26.5
19:30 1015 29.97 845 24.95 1.9 35.4 70 -3 26.5
19:35 1015 29.97 845 24.95 1.9 35.4 70 -3.1 26.5
19:40 1016 30 845 24.95 1.5 34.7 71 -3.2 26.3
19:45 1016 30 845 24.95 1.3 34.3 71 -3.4 26
19:50 1016 30 845 24.95 1.1 34 72 -3.4 25.8
19:55 1015 29.97 845 24.95 0.9 33.7 72 -3.5 25.7
20:00 1015 29.97 845 24.95 1 33.7 72 -3.4 25.8
20:05 1015 29.97 845 24.95 0.9 33.7 72 -3.5 25.7
20:10 1015 29.97 845 24.95 0.7 33.2 73 -3.7 25.4
20:15 1015 29.97 845 24.95 0.5 32.9 74 -3.7 25.4
20:20 1015 29.97 845 24.95 0.4 32.7 73 -4 24.8
20:25 1016 30 845 24.95 0.3 32.6 73 -4 24.8
20:30 1016 30 845 24.95 0.1 32.2 72 -4.3 24.2
20:35 1016 30 845 24.95 0.5 32.9 67 -4.9 23.2
20:40 1016 30 845 24.95 0.8 33.4 66 -5 23.1
20:45 1016 30 845 24.95 0.6 33.1 65 -5.3 22.4
20:50 1016 30 845 24.95 0.7 33.2 64 -5.4 22.3
20:55 1016 30 845 24.95 0.6 33 64 -5.4 22.3
21:00 1016 30 845 24.95 0.5 32.9 62 -6 21.2
21:05 1016 30 845 24.95 0.5 32.8 60 -6.4 20.5
21:10 1016 30 845 24.95 0.3 32.6 63 -6 21.3
21:15 1016 30 845 24.95 -0.2 31.6 64 -6.2 20.8
21:20 1016 30 845 24.95 -0.6 31 64 -6.6 20.2
21:25 1016 30 845 24.95 -0.5 31.2 64 -6.4 20.4
21:30 1016 30 845 24.95 -0.4 31.3 63 -6.5 20.3
21:35 1016 30 845 24.95 -0.1 31.8 62 -6.5 20.4
21:40 1016 30 845 24.95 -0.1 31.9 60 -6.8 19.7
21:45 1016 30 845 24.95 0.1 32.2 58 -7.2 19.1
21:50 1016 30 845 24.95 0.4 32.7 54 -7.8 17.9
21:55 1016 30 845 24.95 0.8 33.4 52 -8 17.6
22:00 1016 30 845 24.95 0.7 33.2 51 -8.4 16.9
22:05 1016 30 845 24.95 0.7 33.3 52 -8 17.7
22:10 1015 29.97 845 24.95 0.3 32.5 54 -8 17.5
22:15 1015 29.97 845 24.95 -0.2 31.6 58 -7.5 18.5
22:20 1015 29.97 845 24.95 -0.6 30.9 60 -7.5 18.6
22:25 1015 29.97 845 24.95 -0.9 30.5 61 -7.5 18.6
22:30 1015 29.97 844 24.92 -1 30.2 62 -7.5 18.6
22:35 1015 29.97 844 24.92 -1.1 30 62 -7.6 18.4
22:40 1015 29.97 844 24.92 -1.2 29.8 62 -7.7 18.2
22:45 1015 29.97 844 24.92 -1.2 29.8 61 -7.8 18
22:50 1015 29.97 844 24.92 -1.3 29.7 61 -7.8 17.9
22:55 1015 29.97 844 24.92 -1.4 29.4 62 -7.9 17.8
23:00 1015 29.97 844 24.92 -1.5 29.3 61 -8 17.6
23:05 1015 29.97 844 24.92 -1.5 29.2 61 -8.1 17.4
23:10 1015 29.97 844 24.92 -1.5 29.4 60 -8.2 17.2
23:15 1015 29.97 844 24.92 -1.3 29.7 60 -8.2 17.2
23:20 1015 29.97 844 24.92 -1.3 29.6 59 -8.3 17.1
23:25 1015 29.97 844 24.92 -1.4 29.5 59 -8.4 16.9
23:30 1015 29.97 844 24.92 -1.4 29.5 59 -8.5 16.7
23:35 1015 29.97 844 24.92 -1.4 29.4 58 -8.7 16.4
23:40 1015 29.97 844 24.92 -1.5 29.2 58 -8.7 16.3
23:45 1015 29.97 844 24.92 -1.7 28.9 58 -8.9 15.9
23:50 1015 29.97 844 24.92 -1.8 28.8 58 -9 15.9
23:55 1015 29.97 844 24.92 -1.8 28.8 58 -9 15.8
24:00 1015 29.97 844 24.92 -1.6 29.1 58 -8.9 16